sensor_id;sensor_type;location;lat;lon;timestamp;P1;durP1;ratioP1;P2;durP2;ratioP2
49153;SDS011;49455;52.252;9.124;2022-07-06T00:02:47;3.83;;;1.60;;
49153;SDS011;49455;52.252;9.124;2022-07-06T00:07:47;3.25;;;1.55;;
49153;SDS011;49455;52.252;9.124;2022-07-06T00:12:48;2.38;;;1.50;;
49153;SDS011;49455;52.252;9.124;2022-07-06T00:17:48;4.45;;;1.85;;
49153;SDS011;49455;52.252;9.124;2022-07-06T00:22:48;4.88;;;1.55;;
49153;SDS011;49455;52.252;9.124;2022-07-06T00:27:49;3.58;;;2.13;;
49153;SDS011;49455;52.252;9.124;2022-07-06T00:32:49;5.82;;;1.55;;
49153;SDS011;49455;52.252;9.124;2022-07-06T00:37:50;6.13;;;1.77;;
49153;SDS011;49455;52.252;9.124;2022-07-06T00:42:53;3.85;;;1.95;;
49153;SDS011;49455;52.252;9.124;2022-07-06T00:47:54;5.10;;;2.20;;
49153;SDS011;49455;52.252;9.124;2022-07-06T00:52:55;4.97;;;1.80;;
49153;SDS011;49455;52.252;9.124;2022-07-06T00:57:57;7.30;;;2.00;;
49153;SDS011;49455;52.252;9.124;2022-07-06T01:02:58;6.18;;;2.53;;
49153;SDS011;49455;52.252;9.124;2022-07-06T01:07:58;5.40;;;2.00;;
49153;SDS011;49455;52.252;9.124;2022-07-06T01:12:59;5.40;;;1.90;;
49153;SDS011;49455;52.252;9.124;2022-07-06T01:17:59;5.07;;;1.70;;
49153;SDS011;49455;52.252;9.124;2022-07-06T01:23:04;6.97;;;1.90;;
49153;SDS011;49455;52.252;9.124;2022-07-06T01:28:04;5.82;;;2.15;;
49153;SDS011;49455;52.252;9.124;2022-07-06T01:33:05;5.53;;;2.20;;
49153;SDS011;49455;52.252;9.124;2022-07-06T01:38:05;6.95;;;2.25;;
49153;SDS011;49455;52.252;9.124;2022-07-06T01:43:06;7.30;;;2.20;;
49153;SDS011;49455;52.252;9.124;2022-07-06T01:48:07;6.13;;;2.33;;
49153;SDS011;49455;52.252;9.124;2022-07-06T01:53:07;5.78;;;2.30;;
49153;SDS011;49455;52.252;9.124;2022-07-06T01:58:08;2.38;;;2.00;;
49153;SDS011;49455;52.252;9.124;2022-07-06T02:03:08;4.95;;;1.90;;
49153;SDS011;49455;52.252;9.124;2022-07-06T02:08:11;4.80;;;2.03;;
49153;SDS011;49455;52.252;9.124;2022-07-06T02:13:12;4.80;;;1.85;;
49153;SDS011;49455;52.252;9.124;2022-07-06T02:18:13;4.50;;;1.90;;
49153;SDS011;49455;52.252;9.124;2022-07-06T02:23:13;6.05;;;2.13;;
49153;SDS011;49455;52.252;9.124;2022-07-06T02:28:14;5.57;;;2.17;;
49153;SDS011;49455;52.252;9.124;2022-07-06T02:33:18;3.53;;;1.92;;
49153;SDS011;49455;52.252;9.124;2022-07-06T02:38:19;4.25;;;2.05;;
49153;SDS011;49455;52.252;9.124;2022-07-06T02:43:20;7.93;;;1.88;;
49153;SDS011;49455;52.252;9.124;2022-07-06T02:48:20;5.72;;;2.17;;
49153;SDS011;49455;52.252;9.124;2022-07-06T02:53:22;6.03;;;2.17;;
49153;SDS011;49455;52.252;9.124;2022-07-06T02:58:26;8.63;;;2.10;;
49153;SDS011;49455;52.252;9.124;2022-07-06T03:03:27;3.97;;;1.50;;
49153;SDS011;49455;52.252;9.124;2022-07-06T03:08:29;3.13;;;1.67;;
49153;SDS011;49455;52.252;9.124;2022-07-06T03:13:29;4.90;;;2.30;;
49153;SDS011;49455;52.252;9.124;2022-07-06T03:18:30;6.43;;;1.92;;
49153;SDS011;49455;52.252;9.124;2022-07-06T03:23:31;5.65;;;1.70;;
49153;SDS011;49455;52.252;9.124;2022-07-06T03:28:32;5.10;;;2.20;;
49153;SDS011;49455;52.252;9.124;2022-07-06T03:33:33;4.43;;;1.67;;
49153;SDS011;49455;52.252;9.124;2022-07-06T03:38:34;7.95;;;2.22;;
49153;SDS011;49455;52.252;9.124;2022-07-06T03:43:35;6.78;;;2.22;;
49153;SDS011;49455;52.252;9.124;2022-07-06T03:48:36;6.35;;;2.00;;
49153;SDS011;49455;52.252;9.124;2022-07-06T03:53:39;7.55;;;2.10;;
49153;SDS011;49455;52.252;9.124;2022-07-06T03:58:39;6.97;;;1.92;;
49153;SDS011;49455;52.252;9.124;2022-07-06T04:03:40;7.68;;;2.38;;
49153;SDS011;49455;52.252;9.124;2022-07-06T04:08:41;4.63;;;1.98;;
49153;SDS011;49455;52.252;9.124;2022-07-06T04:13:42;6.57;;;1.90;;
49153;SDS011;49455;52.252;9.124;2022-07-06T04:18:42;4.63;;;2.03;;
49153;SDS011;49455;52.252;9.124;2022-07-06T04:23:44;6.30;;;2.00;;
49153;SDS011;49455;52.252;9.124;2022-07-06T04:28:45;5.73;;;2.13;;
49153;SDS011;49455;52.252;9.124;2022-07-06T04:33:45;8.88;;;2.10;;
49153;SDS011;49455;52.252;9.124;2022-07-06T04:38:46;9.52;;;1.90;;
49153;SDS011;49455;52.252;9.124;2022-07-06T04:43:47;6.65;;;2.20;;
49153;SDS011;49455;52.252;9.124;2022-07-06T04:48:51;7.22;;;2.00;;
49153;SDS011;49455;52.252;9.124;2022-07-06T04:53:57;5.43;;;2.40;;
49153;SDS011;49455;52.252;9.124;2022-07-06T04:58:57;7.38;;;2.17;;
49153;SDS011;49455;52.252;9.124;2022-07-06T05:03:59;8.33;;;2.23;;
49153;SDS011;49455;52.252;9.124;2022-07-06T05:09:00;5.32;;;1.83;;
49153;SDS011;49455;52.252;9.124;2022-07-06T05:14:01;5.40;;;2.67;;
49153;SDS011;49455;52.252;9.124;2022-07-06T05:19:02;7.93;;;2.20;;
49153;SDS011;49455;52.252;9.124;2022-07-06T05:24:03;8.63;;;2.28;;
49153;SDS011;49455;52.252;9.124;2022-07-06T05:29:04;6.88;;;2.20;;
49153;SDS011;49455;52.252;9.124;2022-07-06T05:34:05;9.95;;;2.60;;
49153;SDS011;49455;52.252;9.124;2022-07-06T05:39:07;7.40;;;2.42;;
49153;SDS011;49455;52.252;9.124;2022-07-06T05:44:07;7.95;;;2.42;;
49153;SDS011;49455;52.252;9.124;2022-07-06T05:49:08;6.65;;;2.47;;
49153;SDS011;49455;52.252;9.124;2022-07-06T05:54:09;6.82;;;2.20;;
49153;SDS011;49455;52.252;9.124;2022-07-06T05:59:10;7.22;;;2.10;;
49153;SDS011;49455;52.252;9.124;2022-07-06T06:04:10;5.90;;;2.40;;
49153;SDS011;49455;52.252;9.124;2022-07-06T06:09:11;8.65;;;2.00;;
49153;SDS011;49455;52.252;9.124;2022-07-06T06:14:11;4.82;;;1.77;;
49153;SDS011;49455;52.252;9.124;2022-07-06T06:19:12;7.05;;;2.00;;
49153;SDS011;49455;52.252;9.124;2022-07-06T06:24:12;6.07;;;1.90;;
49153;SDS011;49455;52.252;9.124;2022-07-06T06:29:13;5.53;;;1.70;;
49153;SDS011;49455;52.252;9.124;2022-07-06T06:34:13;6.55;;;1.40;;
49153;SDS011;49455;52.252;9.124;2022-07-06T06:39:13;6.85;;;1.52;;
49153;SDS011;49455;52.252;9.124;2022-07-06T06:44:14;5.20;;;1.80;;
49153;SDS011;49455;52.252;9.124;2022-07-06T06:49:15;7.72;;;1.73;;
49153;SDS011;49455;52.252;9.124;2022-07-06T06:54:15;7.03;;;1.80;;
49153;SDS011;49455;52.252;9.124;2022-07-06T06:59:19;7.25;;;1.45;;
49153;SDS011;49455;52.252;9.124;2022-07-06T07:04:19;3.72;;;1.45;;
49153;SDS011;49455;52.252;9.124;2022-07-06T07:09:20;2.97;;;1.15;;
49153;SDS011;49455;52.252;9.124;2022-07-06T07:14:20;5.35;;;1.35;;
49153;SDS011;49455;52.252;9.124;2022-07-06T07:19:21;6.38;;;1.67;;
49153;SDS011;49455;52.252;9.124;2022-07-06T07:24:21;3.58;;;1.42;;
49153;SDS011;49455;52.252;9.124;2022-07-06T07:29:22;5.30;;;1.30;;
49153;SDS011;49455;52.252;9.124;2022-07-06T07:34:22;3.38;;;1.30;;
49153;SDS011;49455;52.252;9.124;2022-07-06T07:39:23;4.60;;;1.35;;
49153;SDS011;49455;52.252;9.124;2022-07-06T07:44:23;5.85;;;1.63;;
49153;SDS011;49455;52.252;9.124;2022-07-06T07:49:23;4.18;;;1.50;;
49153;SDS011;49455;52.252;9.124;2022-07-06T07:54:24;6.13;;;1.63;;
49153;SDS011;49455;52.252;9.124;2022-07-06T07:59:24;4.43;;;1.35;;
49153;SDS011;49455;52.252;9.124;2022-07-06T08:04:25;6.13;;;1.63;;
49153;SDS011;49455;52.252;9.124;2022-07-06T08:09:25;6.43;;;2.00;;
49153;SDS011;49455;52.252;9.124;2022-07-06T08:14:26;4.63;;;1.73;;
49153;SDS011;49455;52.252;9.124;2022-07-06T08:19:26;4.75;;;1.85;;
49153;SDS011;49455;52.252;9.124;2022-07-06T08:24:27;2.20;;;1.20;;
49153;SDS011;49455;52.252;9.124;2022-07-06T08:29:27;5.38;;;1.30;;
49153;SDS011;49455;52.252;9.124;2022-07-06T08:34:28;6.97;;;1.80;;
49153;SDS011;49455;52.252;9.124;2022-07-06T08:39:28;11.63;;;1.67;;
49153;SDS011;49455;52.252;9.124;2022-07-06T08:44:31;4.40;;;1.23;;
49153;SDS011;49455;52.252;9.124;2022-07-06T08:49:33;6.47;;;1.20;;
49153;SDS011;49455;52.252;9.124;2022-07-06T08:54:35;4.65;;;1.05;;
49153;SDS011;49455;52.252;9.124;2022-07-06T08:59:38;6.50;;;1.38;;
49153;SDS011;49455;52.252;9.124;2022-07-06T09:04:39;2.33;;;1.10;;
49153;SDS011;49455;52.252;9.124;2022-07-06T09:09:42;3.55;;;1.08;;
49153;SDS011;49455;52.252;9.124;2022-07-06T09:14:43;5.53;;;1.37;;
49153;SDS011;49455;52.252;9.124;2022-07-06T09:19:45;5.63;;;1.47;;
49153;SDS011;49455;52.252;9.124;2022-07-06T09:24:45;5.20;;;1.35;;
49153;SDS011;49455;52.252;9.124;2022-07-06T09:29:46;2.95;;;1.02;;
49153;SDS011;49455;52.252;9.124;2022-07-06T09:34:47;4.80;;;1.10;;
49153;SDS011;49455;52.252;9.124;2022-07-06T09:39:47;3.50;;;0.90;;
49153;SDS011;49455;52.252;9.124;2022-07-06T09:44:48;2.17;;;1.00;;
49153;SDS011;49455;52.252;9.124;2022-07-06T09:49:48;7.87;;;1.03;;
49153;SDS011;49455;52.252;9.124;2022-07-06T09:54:49;4.40;;;1.03;;
49153;SDS011;49455;52.252;9.124;2022-07-06T09:59:52;4.40;;;1.38;;
49153;SDS011;49455;52.252;9.124;2022-07-06T10:04:52;3.47;;;1.05;;
49153;SDS011;49455;52.252;9.124;2022-07-06T10:09:55;2.25;;;0.93;;
49153;SDS011;49455;52.252;9.124;2022-07-06T10:14:56;2.20;;;1.00;;
49153;SDS011;49455;52.252;9.124;2022-07-06T10:19:57;2.77;;;0.80;;
49153;SDS011;49455;52.252;9.124;2022-07-06T10:24:58;1.58;;;0.80;;
49153;SDS011;49455;52.252;9.124;2022-07-06T10:29:59;6.30;;;1.20;;
49153;SDS011;49455;52.252;9.124;2022-07-06T10:35:00;3.10;;;1.17;;
49153;SDS011;49455;52.252;9.124;2022-07-06T10:40:01;4.83;;;0.83;;
49153;SDS011;49455;52.252;9.124;2022-07-06T10:45:02;0.97;;;0.70;;
49153;SDS011;49455;52.252;9.124;2022-07-06T10:50:03;1.63;;;0.80;;
49153;SDS011;49455;52.252;9.124;2022-07-06T10:55:04;6.03;;;1.00;;
49153;SDS011;49455;52.252;9.124;2022-07-06T11:00:05;5.55;;;0.90;;
49153;SDS011;49455;52.252;9.124;2022-07-06T11:05:10;2.10;;;0.80;;
49153;SDS011;49455;52.252;9.124;2022-07-06T11:10:11;3.65;;;1.00;;
49153;SDS011;49455;52.252;9.124;2022-07-06T11:15:12;6.63;;;1.17;;
49153;SDS011;49455;52.252;9.124;2022-07-06T11:20:34;2.05;;;1.02;;
49153;SDS011;49455;52.252;9.124;2022-07-06T11:25:34;2.83;;;0.80;;
49153;SDS011;49455;52.252;9.124;2022-07-06T11:30:35;3.33;;;1.10;;
49153;SDS011;49455;52.252;9.124;2022-07-06T11:35:35;2.10;;;1.00;;
49153;SDS011;49455;52.252;9.124;2022-07-06T11:40:38;2.77;;;0.87;;
49153;SDS011;49455;52.252;9.124;2022-07-06T11:45:39;3.17;;;1.30;;
49153;SDS011;49455;52.252;9.124;2022-07-06T11:50:39;4.97;;;1.00;;
49153;SDS011;49455;52.252;9.124;2022-07-06T11:55:40;3.70;;;1.20;;
49153;SDS011;49455;52.252;9.124;2022-07-06T12:00:40;2.53;;;1.07;;
49153;SDS011;49455;52.252;9.124;2022-07-06T12:05:41;1.87;;;0.90;;
49153;SDS011;49455;52.252;9.124;2022-07-06T12:10:42;5.73;;;1.00;;
49153;SDS011;49455;52.252;9.124;2022-07-06T12:15:42;2.33;;;1.10;;
49153;SDS011;49455;52.252;9.124;2022-07-06T12:20:43;1.87;;;1.07;;
49153;SDS011;49455;52.252;9.124;2022-07-06T12:25:43;6.13;;;1.40;;
49153;SDS011;49455;52.252;9.124;2022-07-06T12:30:47;4.67;;;1.57;;
49153;SDS011;49455;52.252;9.124;2022-07-06T12:35:47;6.78;;;1.00;;
49153;SDS011;49455;52.252;9.124;2022-07-06T12:40:48;3.30;;;0.93;;
49153;SDS011;49455;52.252;9.124;2022-07-06T12:45:48;6.30;;;0.90;;
49153;SDS011;49455;52.252;9.124;2022-07-06T12:50:48;5.20;;;1.07;;
49153;SDS011;49455;52.252;9.124;2022-07-06T12:56:07;2.57;;;0.77;;
49153;SDS011;49455;52.252;9.124;2022-07-06T13:01:14;2.10;;;0.80;;
49153;SDS011;49455;52.252;9.124;2022-07-06T13:06:14;7.20;;;1.05;;
49153;SDS011;49455;52.252;9.124;2022-07-06T13:11:29;4.00;;;1.10;;
49153;SDS011;49455;52.252;9.124;2022-07-06T13:16:30;3.50;;;1.00;;
49153;SDS011;49455;52.252;9.124;2022-07-06T13:21:30;4.63;;;1.03;;
49153;SDS011;49455;52.252;9.124;2022-07-06T13:26:30;6.23;;;1.03;;
49153;SDS011;49455;52.252;9.124;2022-07-06T13:31:31;3.27;;;0.90;;
49153;SDS011;49455;52.252;9.124;2022-07-06T13:36:32;3.80;;;0.90;;
49153;SDS011;49455;52.252;9.124;2022-07-06T13:41:33;4.20;;;1.20;;
49153;SDS011;49455;52.252;9.124;2022-07-06T13:46:34;3.07;;;1.10;;
49153;SDS011;49455;52.252;9.124;2022-07-06T13:51:34;3.57;;;0.90;;
49153;SDS011;49455;52.252;9.124;2022-07-06T13:56:36;2.67;;;1.23;;
49153;SDS011;49455;52.252;9.124;2022-07-06T14:01:38;2.92;;;0.82;;
49153;SDS011;49455;52.252;9.124;2022-07-06T14:06:38;2.47;;;0.90;;
49153;SDS011;49455;52.252;9.124;2022-07-06T14:11:38;3.63;;;1.13;;
49153;SDS011;49455;52.252;9.124;2022-07-06T14:16:39;5.30;;;1.30;;
49153;SDS011;49455;52.252;9.124;2022-07-06T14:21:39;2.23;;;0.60;;
49153;SDS011;49455;52.252;9.124;2022-07-06T14:26:40;5.60;;;1.00;;
49153;SDS011;49455;52.252;9.124;2022-07-06T14:31:40;2.30;;;0.80;;
49153;SDS011;49455;52.252;9.124;2022-07-06T14:36:41;3.20;;;1.07;;
49153;SDS011;49455;52.252;9.124;2022-07-06T14:41:41;3.57;;;0.90;;
49153;SDS011;49455;52.252;9.124;2022-07-06T14:46:42;2.43;;;1.13;;
49153;SDS011;49455;52.252;9.124;2022-07-06T14:51:42;3.97;;;0.93;;
49153;SDS011;49455;52.252;9.124;2022-07-06T14:56:43;3.43;;;0.77;;
49153;SDS011;49455;52.252;9.124;2022-07-06T15:01:43;1.63;;;0.70;;
49153;SDS011;49455;52.252;9.124;2022-07-06T15:06:44;2.87;;;1.00;;
49153;SDS011;49455;52.252;9.124;2022-07-06T15:11:44;3.10;;;0.80;;
49153;SDS011;49455;52.252;9.124;2022-07-06T15:16:45;4.57;;;0.90;;
49153;SDS011;49455;52.252;9.124;2022-07-06T15:21:45;4.73;;;1.27;;
49153;SDS011;49455;52.252;9.124;2022-07-06T15:26:46;2.13;;;0.63;;
49153;SDS011;49455;52.252;9.124;2022-07-06T15:31:47;2.37;;;0.70;;
49153;SDS011;49455;52.252;9.124;2022-07-06T15:36:47;3.27;;;0.93;;
49153;SDS011;49455;52.252;9.124;2022-07-06T15:41:48;3.00;;;1.10;;
49153;SDS011;49455;52.252;9.124;2022-07-06T15:46:48;4.33;;;0.97;;
49153;SDS011;49455;52.252;9.124;2022-07-06T15:51:49;2.93;;;0.70;;
49153;SDS011;49455;52.252;9.124;2022-07-06T15:56:49;4.63;;;0.80;;
49153;SDS011;49455;52.252;9.124;2022-07-06T16:01:50;2.67;;;0.80;;
49153;SDS011;49455;52.252;9.124;2022-07-06T16:06:50;2.83;;;0.80;;
49153;SDS011;49455;52.252;9.124;2022-07-06T16:11:51;5.73;;;1.23;;
49153;SDS011;49455;52.252;9.124;2022-07-06T16:16:51;4.57;;;0.80;;
49153;SDS011;49455;52.252;9.124;2022-07-06T16:21:52;2.77;;;0.80;;
49153;SDS011;49455;52.252;9.124;2022-07-06T16:26:52;1.90;;;0.80;;
49153;SDS011;49455;52.252;9.124;2022-07-06T16:31:52;3.43;;;0.90;;
49153;SDS011;49455;52.252;9.124;2022-07-06T16:36:53;3.50;;;0.90;;
49153;SDS011;49455;52.252;9.124;2022-07-06T16:41:53;2.77;;;0.77;;
49153;SDS011;49455;52.252;9.124;2022-07-06T16:46:54;5.13;;;0.83;;
49153;SDS011;49455;52.252;9.124;2022-07-06T16:51:54;4.47;;;0.90;;
49153;SDS011;49455;52.252;9.124;2022-07-06T16:56:55;6.50;;;1.20;;
49153;SDS011;49455;52.252;9.124;2022-07-06T17:01:55;3.57;;;1.00;;
49153;SDS011;49455;52.252;9.124;2022-07-06T17:06:56;2.30;;;0.83;;
49153;SDS011;49455;52.252;9.124;2022-07-06T17:11:57;4.30;;;0.90;;
49153;SDS011;49455;52.252;9.124;2022-07-06T17:16:57;3.13;;;0.73;;
49153;SDS011;49455;52.252;9.124;2022-07-06T17:21:57;6.73;;;0.90;;
49153;SDS011;49455;52.252;9.124;2022-07-06T17:26:58;1.77;;;0.80;;
49153;SDS011;49455;52.252;9.124;2022-07-06T17:31:58;4.23;;;0.63;;
49153;SDS011;49455;52.252;9.124;2022-07-06T17:36:59;3.77;;;0.83;;
49153;SDS011;49455;52.252;9.124;2022-07-06T17:41:59;3.03;;;0.80;;
49153;SDS011;49455;52.252;9.124;2022-07-06T17:47:00;3.13;;;0.90;;
49153;SDS011;49455;52.252;9.124;2022-07-06T17:52:00;2.30;;;0.80;;
49153;SDS011;49455;52.252;9.124;2022-07-06T17:57:01;2.53;;;0.70;;
49153;SDS011;49455;52.252;9.124;2022-07-06T18:02:01;1.07;;;0.73;;
49153;SDS011;49455;52.252;9.124;2022-07-06T18:07:02;6.63;;;0.80;;
49153;SDS011;49455;52.252;9.124;2022-07-06T18:12:03;1.93;;;0.80;;
49153;SDS011;49455;52.252;9.124;2022-07-06T18:17:04;2.00;;;0.80;;
49153;SDS011;49455;52.252;9.124;2022-07-06T18:22:04;2.63;;;0.80;;
49153;SDS011;49455;52.252;9.124;2022-07-06T18:27:05;3.30;;;0.80;;
49153;SDS011;49455;52.252;9.124;2022-07-06T18:32:05;4.30;;;0.67;;
49153;SDS011;49455;52.252;9.124;2022-07-06T18:37:06;3.20;;;0.70;;
49153;SDS011;49455;52.252;9.124;2022-07-06T18:42:07;0.80;;;0.67;;
49153;SDS011;49455;52.252;9.124;2022-07-06T18:47:07;3.20;;;0.80;;
49153;SDS011;49455;52.252;9.124;2022-07-06T18:52:08;3.80;;;0.93;;
49153;SDS011;49455;52.252;9.124;2022-07-06T18:57:08;5.40;;;0.93;;
49153;SDS011;49455;52.252;9.124;2022-07-06T19:02:09;2.80;;;0.75;;
49153;SDS011;49455;52.252;9.124;2022-07-06T19:07:09;1.60;;;0.77;;
49153;SDS011;49455;52.252;9.124;2022-07-06T19:12:10;3.50;;;0.83;;
49153;SDS011;49455;52.252;9.124;2022-07-06T19:17:10;4.18;;;1.00;;
49153;SDS011;49455;52.252;9.124;2022-07-06T19:22:11;1.83;;;1.00;;
49153;SDS011;49455;52.252;9.124;2022-07-06T19:27:11;3.78;;;1.00;;
49153;SDS011;49455;52.252;9.124;2022-07-06T19:32:12;6.07;;;0.90;;
49153;SDS011;49455;52.252;9.124;2022-07-06T19:37:12;5.17;;;1.03;;
49153;SDS011;49455;52.252;9.124;2022-07-06T19:42:13;2.15;;;0.93;;
49153;SDS011;49455;52.252;9.124;2022-07-06T19:47:13;1.33;;;0.90;;
49153;SDS011;49455;52.252;9.124;2022-07-06T19:52:14;4.83;;;1.10;;
49153;SDS011;49455;52.252;9.124;2022-07-06T19:57:14;5.03;;;1.10;;
49153;SDS011;49455;52.252;9.124;2022-07-06T20:02:14;3.33;;;0.95;;
49153;SDS011;49455;52.252;9.124;2022-07-06T20:07:15;2.20;;;1.00;;
49153;SDS011;49455;52.252;9.124;2022-07-06T20:12:16;1.50;;;0.90;;
49153;SDS011;49455;52.252;9.124;2022-07-06T20:17:17;2.37;;;0.80;;
49153;SDS011;49455;52.252;9.124;2022-07-06T20:22:18;2.65;;;1.00;;
49153;SDS011;49455;52.252;9.124;2022-07-06T20:27:18;4.60;;;1.10;;
49153;SDS011;49455;52.252;9.124;2022-07-06T20:32:18;3.73;;;1.20;;
49153;SDS011;49455;52.252;9.124;2022-07-06T20:37:19;2.17;;;1.02;;
49153;SDS011;49455;52.252;9.124;2022-07-06T20:42:20;2.60;;;0.98;;
49153;SDS011;49455;52.252;9.124;2022-07-06T20:47:20;2.67;;;1.00;;
49153;SDS011;49455;52.252;9.124;2022-07-06T20:52:21;3.17;;;1.40;;
49153;SDS011;49455;52.252;9.124;2022-07-06T20:57:21;3.00;;;0.80;;
49153;SDS011;49455;52.252;9.124;2022-07-06T21:02:22;5.37;;;0.93;;
49153;SDS011;49455;52.252;9.124;2022-07-06T21:07:22;3.00;;;0.85;;
49153;SDS011;49455;52.252;9.124;2022-07-06T21:12:22;4.07;;;1.13;;
49153;SDS011;49455;52.252;9.124;2022-07-06T21:17:23;2.58;;;0.80;;
49153;SDS011;49455;52.252;9.124;2022-07-06T21:22:23;3.88;;;0.95;;
49153;SDS011;49455;52.252;9.124;2022-07-06T21:27:24;2.90;;;1.10;;
49153;SDS011;49455;52.252;9.124;2022-07-06T21:32:24;4.18;;;1.35;;
49153;SDS011;49455;52.252;9.124;2022-07-06T21:37:25;4.38;;;1.55;;
49153;SDS011;49455;52.252;9.124;2022-07-06T21:42:25;8.18;;;1.30;;
49153;SDS011;49455;52.252;9.124;2022-07-06T21:47:26;2.65;;;1.30;;
49153;SDS011;49455;52.252;9.124;2022-07-06T21:52:26;3.80;;;1.27;;
49153;SDS011;49455;52.252;9.124;2022-07-06T21:57:27;5.18;;;1.40;;
49153;SDS011;49455;52.252;9.124;2022-07-06T22:02:27;6.85;;;1.65;;
49153;SDS011;49455;52.252;9.124;2022-07-06T22:07:28;5.72;;;1.67;;
49153;SDS011;49455;52.252;9.124;2022-07-06T22:12:28;5.07;;;1.58;;
49153;SDS011;49455;52.252;9.124;2022-07-06T22:17:29;3.13;;;1.50;;
49153;SDS011;49455;52.252;9.124;2022-07-06T22:22:29;3.55;;;1.45;;
49153;SDS011;49455;52.252;9.124;2022-07-06T22:27:30;3.33;;;1.45;;
49153;SDS011;49455;52.252;9.124;2022-07-06T22:32:30;2.78;;;1.30;;
49153;SDS011;49455;52.252;9.124;2022-07-06T22:37:31;7.70;;;1.52;;
49153;SDS011;49455;52.252;9.124;2022-07-06T22:42:31;4.22;;;2.40;;
49153;SDS011;49455;52.252;9.124;2022-07-06T22:47:32;4.60;;;2.03;;
49153;SDS011;49455;52.252;9.124;2022-07-06T22:52:32;8.57;;;2.85;;
49153;SDS011;49455;52.252;9.124;2022-07-06T22:57:33;7.32;;;3.20;;
49153;SDS011;49455;52.252;9.124;2022-07-06T23:02:33;4.50;;;2.58;;
49153;SDS011;49455;52.252;9.124;2022-07-06T23:07:36;5.90;;;2.72;;
49153;SDS011;49455;52.252;9.124;2022-07-06T23:12:37;4.03;;;2.35;;
49153;SDS011;49455;52.252;9.124;2022-07-06T23:17:37;5.95;;;2.58;;
49153;SDS011;49455;52.252;9.124;2022-07-06T23:22:37;5.80;;;2.50;;
49153;SDS011;49455;52.252;9.124;2022-07-06T23:27:38;5.47;;;2.83;;
49153;SDS011;49455;52.252;9.124;2022-07-06T23:32:38;7.18;;;2.75;;
49153;SDS011;49455;52.252;9.124;2022-07-06T23:37:39;5.95;;;3.40;;
49153;SDS011;49455;52.252;9.124;2022-07-06T23:42:39;8.43;;;3.75;;
49153;SDS011;49455;52.252;9.124;2022-07-06T23:47:40;7.72;;;4.47;;
49153;SDS011;49455;52.252;9.124;2022-07-06T23:52:40;8.30;;;4.47;;
49153;SDS011;49455;52.252;9.124;2022-07-06T23:57:41;11.70;;;4.40;;
